NCAR-RAP Real-Time Weather Data

Output produced by METARs form (20 February 2019  18:02 UTC)
found at http://weather.rap.ucar.edu/surface/
 
RJSA 201208Z 18003KT 140V220 6000 R24/1800U FEW003 SCT020 BKN050 01/01 Q1010 RMK 1ST003 3CU020 6CU050 A2985
RJSA 201200Z VRB01KT 3000 R24/1000VP1800U BCFG -SHRA BR FEW001 SCT010 BKN030 01/01 Q1010
RJSA 201149Z VRB01KT 1600 R24/0400V0700U BCFG -SHRA BR FEW001 SCT003 BKN015 01/01 Q1010 RMK 2ST001 3ST003 6CU015 A2985
RJSA 201125Z 30002KT 0800 R24/0350V0450N FG -SHRA SCT001 BKN002 01/01 Q1011 RMK 4ST001 7ST002 A2986
RJSA 201120Z 29002KT 0800 R24/0400N FG -SHRA SCT001 BKN002 01/00 Q1011 RMK 4ST001 7ST002 A2986
RJSA 201100Z VRB01KT 0400 R24/0350N FG -SHRA BKN001 01/01 Q1010
RJSA 201044Z VRB01KT 0400 R24/0350N FG -SHRA BKN001 01/01 Q1010 RMK 7ST001 A2985
RJSA 201030Z VRB01KT 0400 R24/0500V0600N FG -SHRA BKN001 01/01 Q1011 RMK 7ST001 A2985
RJSA 201020Z 00000KT 0800 R24/0650V0900D FG -SHRA BKN001 BKN002 01/01 Q1011 RMK 5ST001 7ST002 A2985
RJSA 201018Z 00000KT 0800 R24/0800N FG -SHRA BKN001 BKN002 01/01 Q1010 RMK 5ST001 7ST002 A2985
RJSA 201011Z 00000KT 1000 R24/0800V1300D BCFG -SHRA BR SCT001 BKN005 01/01 Q1011 RMK 4ST001 6ST005 A2985
RJSA 201007Z VRB01KT 1000 R24/0900V1600D BCFG -SHRA BR SCT001 BKN005 01/01 Q1010 RMK 4ST001 6ST005 A2985
RJSA 201005Z VRB01KT 1200 R24/1100VP1800D BCFG -SHRA BR SCT001 BKN006 01/01 Q1010 RMK 4ST001 6ST006 A2985
RJSA 201000Z VRB02KT 1200 R24/1700D BCFG -SHRA BR FEW001 SCT004 BKN006 01/01 Q1011
RJSA 200948Z 27002KT 1200 R24/1000VP1800U BCFG -SHRA BR FEW001 SCT004 BKN015 01/01 Q1011 RMK 2ST001 3ST004 6CU015 A2986
RJSA 200941Z VRB02KT 1200 R24/1000V1500N BCFG -SHRA BR FEW001 SCT004 BKN015 01/01 Q1011 RMK 2ST001 3ST004 6CU015 A2986
RJSA 200924Z VRB02KT 1200 R24/1200VP1800U BCFG -SHRA BR FEW001 SCT004 BKN006 01/00 Q1011 RMK 1ST001 3ST004 6ST006 A2985
RJSA 200918Z VRB02KT 1600 R24/1200VP1800D BCFG -SHRA BR FEW001 SCT004 BKN006 01/01 Q1011 RMK 1ST001 3ST004 6ST006 A2985
RJSA 200916Z VRB02KT 1600 R24/1200VP1800D BCFG -SHRA BR FEW001 SCT004 BKN006 01/01 Q1011 RMK 1ST001 3ST004 6ST006 A2985
RJSA 200900Z VRB01KT 4500 -SHRA BR FEW002 SCT010 BKN020 01/01 Q1011
RJSA 200800Z VRB01KT 4500 -SHRA BR FEW001 SCT008 BKN020 02/01 Q1010
RJSA 200700Z 03003KT 8000 -RA FEW001 SCT006 BKN020 02/01 Q1010
RJSA 200629Z 02003KT 6000 FEW001 SCT006 BKN025 02/01 Q1010 RMK 1ST001 4ST006 6SC025 A2984
RJSA 200600Z 05005KT 6000 -RA FEW001 SCT004 BKN006 02/01 Q1010
RJSA 200500Z VRB02KT 6000 -RA FEW001 SCT004 BKN005 02/01 Q1011
RJSA 200430Z VRB02KT 6000 -RA FEW001 SCT004 BKN006 02/01 Q1011 RMK 1ST001 3ST004 6ST006 A2986
RJSA 200400Z 06003KT 6000 -RA FEW001 SCT006 BKN020 02/01 Q1011
RJSA 200300Z 06004KT 8000 PRFG -RA FEW001 SCT005 BKN040 02/01 Q1012
RJSA 200237Z 08002KT 9999 PRFG -RA FEW001 SCT005 BKN030 01/01 Q1012 RMK 1ST001 4ST005 6SC030 A2989 3000SE-S
RJSA 200211Z 07003KT 9999 PRFG -RA FEW001 SCT003 BKN005 02/01 Q1012 RMK 1ST001 3ST003 6ST005 A2990 3000SE-S
RJSA 200200Z 07004KT 8000 PRFG -RA FEW001 SCT002 BKN003 01/01 Q1012
RJSA 200100Z VRB02KT 6000 PRFG FEW001 SCT003 BKN004 01/01 Q1012
RJSA 200050Z VRB02KT 4000 PRFG -RA BR FEW001 SCT002 BKN005 01/01 Q1012 RMK 1ST001 3ST002 6ST005 A2990 2000SE-S
RJSA 200022Z VRB02KT 1600 R24/1000VP1800U BCFG -RA BR SCT001 BKN002 BKN003 01/01 Q1012 RMK 3ST001 5ST002 7ST003 A2990
RJSA 200018Z VRB02KT 1600 R24/1000VP1800U BCFG -RA BR SCT001 BKN002 BKN003 01/01 Q1012 RMK 3ST001 5ST002 7ST003 A2990
RJSA 200014Z VRB02KT 1000 R24/0600V1500U BCFG -RA BR SCT001 BKN002 01/01 Q1012 RMK 4ST001 7ST002 A2990
RJSA 200004Z VRB02KT 0700 R24/0550VP1800D FG -RASN BKN001 BKN002 01/01 Q1012 RMK 5ST001 7ST002 A2990
RJSA 200000Z VRB01KT 0800 R24/0750VP1800D FG -RASN BKN001 BKN002 01/01 Q1012
RJSA 192350Z VRB02KT 1400 R24/1500VP1800U BCFG -RASN BR SCT001 BKN002 01/01 Q1012 RMK 4ST001 7ST002 A2990
RJSA 192347Z VRB02KT 1400 R24/0700VP1800U BCFG -RASN BR BKN001 BKN002 01/00 Q1012 RMK 5ST001 7ST002 A2990
RJSA 192346Z 04003KT 360V060 1000 R24/0350VP1800U BCFG -RASN BR BKN001 BKN002 01/00 Q1012 RMK 5ST001 7ST002 A2990
RJSA 192343Z 05003KT 0700 R24/0300VP1800U FG -RASN BKN001 BKN002 01/00 Q1012 RMK 5ST001 7ST002 A2990
RJSA 192341Z 06003KT 020V090 0500 R24/0300V1500U FG -SNRA BKN001 01/00 Q1012 RMK 7ST001 A2990
RJSA 192315Z VRB01KT 0400 R24/0300N FG -SN VV001 01/00 Q1012 RMK A2990
RJSA 192300Z VRB02KT 0300 R24/0250N FG -SN VV001 01/00 Q1012
RJSA 192200Z 18001KT 0300 R06/0300V0450N FG -RA VV001 00/00 Q1012
RJSA 192140Z 00000KT 0200 R24/0250V0300N FG VV001 00/00 Q1012 RMK A2989
RJSA 191200Z 07003KT 9999 -RA FEW010 SCT030 BKN040 02/01 Q1013
RJSA 191100Z 06005KT 9999 -RA FEW010 SCT030 BKN040 01/M00 Q1014
RJSA 191000Z 07003KT 9999 -RA FEW010 SCT040 BKN050 01/M00 Q1015
RJSA 190900Z 10003KT 9999 -RA FEW010 SCT040 BKN060 04/M01 Q1016
RJSA 190800Z 09004KT 070V170 9999 -RA FEW010 SCT040 BKN050 04/M01 Q1016
RJSA 190700Z VRB01KT 9999 FEW030 BKN050 02/M00 Q1018
RJSA 190600Z 08004KT 9999 FEW030 BKN070 04/M01 Q1018
RJSA 190500Z VRB01KT 9999 FEW030 BKN090 04/M01 Q1018
RJSA 190400Z 23004KT 9999 FEW030 BKN090 03/M01 Q1019
RJSA 190300Z 23007KT 9999 FEW030 BKN110 04/M02 Q1020
RJSA 190200Z 22007KT 9999 FEW030 BKN150 05/M02 Q1021
RJSA 190100Z 22006KT 9999 FEW030 BKN130 05/M02 Q1022
RJSA 190000Z 21008KT 9999 FEW030 BKN130 04/M02 Q1023
RJSA 182300Z 20005KT 9999 FEW030 BKN130 02/M03 Q1023
RJSA 182200Z 19007KT 9999 FEW030 BKN150 02/M03 Q1023
RJSA 182140Z 19007KT 9999 FEW030 BKN150 02/M04 Q1023 RMK 1CU030 7AC150 A3022
RJSA 181200Z 21007KT 9999 FEW030 M01/M06 Q1024
RJSA 181100Z 22008KT 9999 FEW030 M01/M06 Q1023
RJSA 181000Z 22009KT 9999 FEW030 M01/M05 Q1023
RJSA 180900Z 26011KT 9999 FEW030 M00/M05 Q1022
RJSA 180800Z 26013KT 9999 FEW030 01/M05 Q1022
RJSA 180700Z 27019G29KT 9999 FEW030 02/M06 Q1022
RJSA 180651Z 27018G29KT 9999 FEW030 02/M07 Q1022 RMK 1CU030 A3019